Time;durP1;ratioP1;P1;durP2;ratioP2;P2;SDS_P1;SDS_P2;PMS_P1;PMS_P2;Temp;Humidity;BMP_temperature;BMP_pressure;BME280_temperature;BME280_humidity;BME280_pressure;Samples;Min_cycle;Max_cycle;Signal;HPM_P1;HPM_P2
2022/04/07 00:01:04;;;;;;;1.90;1.80;;;11.30;99.90;;;;;;5089781;28;20642;-64
2022/04/07 00:03:30;;;;;;;1.70;1.60;;;11.40;99.90;;;;;;5078183;28;20244;-64
2022/04/07 00:05:55;;;;;;;1.73;1.63;;;11.20;99.90;;;;;;5087461;28;20212;-63
2022/04/07 00:08:21;;;;;;;2.00;1.80;;;11.30;99.90;;;;;;5087042;28;20239;-64
2022/04/07 00:10:48;;;;;;;1.93;1.67;;;11.50;99.90;;;;;;5085246;28;20521;-63
2022/04/07 00:13:14;;;;;;;1.55;1.45;;;11.40;99.90;;;;;;5089887;28;20987;-63
2022/04/07 00:15:39;;;;;;;1.60;1.50;;;11.30;99.90;;;;;;5082706;28;20194;-63
2022/04/07 00:18:06;;;;;;;1.60;1.50;;;11.30;99.90;;;;;;5085051;28;20788;-64
2022/04/07 00:20:32;;;;;;;1.20;1.10;;;11.10;99.90;;;;;;5089828;28;20197;-63
2022/04/07 00:22:58;;;;;;;1.50;1.40;;;11.20;99.90;;;;;;5088514;28;20679;-64
2022/04/07 00:25:25;;;;;;;1.50;1.40;;;11.00;99.90;;;;;;5080546;28;20196;-63
2022/04/07 00:27:51;;;;;;;1.30;1.20;;;11.30;99.90;;;;;;5083665;28;20200;-64
2022/04/07 00:30:20;;;;;;;1.58;1.48;;;11.30;99.90;;;;;;5086928;28;20729;-64
2022/04/07 00:32:46;;;;;;;1.80;1.33;;;11.00;99.90;;;;;;5082857;28;20229;-64
2022/04/07 00:35:12;;;;;;;1.33;1.20;;;11.00;99.90;;;;;;5090312;28;20226;-63
2022/04/07 00:37:38;;;;;;;1.20;1.10;;;11.10;99.90;;;;;;5069880;28;20225;-63
2022/04/07 00:40:06;;;;;;;2.03;1.20;;;11.20;99.90;;;;;;5094892;28;20520;-64
2022/04/07 00:42:32;;;;;;;1.10;0.90;;;11.30;99.90;;;;;;5089476;28;20681;-63
2022/04/07 00:44:59;;;;;;;1.35;1.25;;;11.30;99.90;;;;;;5066842;28;20906;-64
2022/04/07 00:47:25;;;;;;;1.05;0.95;;;11.30;99.90;;;;;;5079099;28;20261;-64
2022/04/07 00:49:52;;;;;;;1.25;1.15;;;11.30;99.90;;;;;;5082150;28;20177;-64
2022/04/07 00:52:18;;;;;;;1.20;1.10;;;11.60;99.90;;;;;;5088275;28;20670;-64
2022/04/07 00:54:44;;;;;;;1.25;0.90;;;11.70;99.90;;;;;;5082356;28;20197;-64
2022/04/07 00:57:10;;;;;;;1.38;1.27;;;11.40;99.90;;;;;;5081507;28;20198;-62
2022/04/07 00:59:39;;;;;;;1.10;1.00;;;11.60;99.90;;;;;;5087827;28;20194;-62
2022/04/07 01:02:06;;;;;;;1.38;1.27;;;11.70;99.90;;;;;;5090359;28;20422;-62
2022/04/07 01:04:32;;;;;;;0.90;0.90;;;11.50;99.90;;;;;;5071236;28;20296;-63
2022/04/07 01:06:58;;;;;;;1.10;1.00;;;11.60;99.90;;;;;;5079679;28;20220;-63
2022/04/07 01:09:23;;;;;;;1.33;0.93;;;11.60;99.90;;;;;;5076692;28;20187;-63
2022/04/07 01:11:50;;;;;;;0.97;0.90;;;11.50;99.90;;;;;;5087498;28;20185;-62
2022/04/07 01:14:16;;;;;;;1.25;0.98;;;11.70;99.90;;;;;;5103996;28;20239;-63
2022/04/07 01:16:42;;;;;;;0.90;0.90;;;11.40;99.90;;;;;;5075471;28;20219;-63
2022/04/07 01:19:07;;;;;;;1.10;0.80;;;11.40;99.90;;;;;;5085072;28;20200;-63
2022/04/07 01:21:35;;;;;;;1.20;1.10;;;11.30;99.90;;;;;;5092909;28;20693;-62
2022/04/07 01:24:09;;;;;;;0.93;0.93;;;11.40;99.90;;;;;;5090557;28;20296;-62
2022/04/07 01:26:43;;;;;;;1.15;1.05;;;11.60;99.90;;;;;;5080754;28;20232;-63
2022/04/07 01:29:12;;;;;;;1.48;1.38;;;11.30;99.90;;;;;;5081407;28;20241;-62
2022/04/07 01:31:38;;;;;;;1.13;1.02;;;11.30;99.90;;;;;;5082391;28;20190;-62
2022/04/07 01:34:07;;;;;;;1.38;1.20;;;11.30;99.90;;;;;;5084543;28;20223;-63
2022/04/07 01:36:40;;;;;;;1.42;1.33;;;11.30;99.90;;;;;;5084461;28;20193;-62
2022/04/07 01:39:07;;;;;;;1.20;1.10;;;11.20;99.90;;;;;;5090148;28;20201;-63
2022/04/07 01:41:38;;;;;;;1.13;1.08;;;11.40;99.90;;;;;;5092332;28;20173;-63
2022/04/07 01:44:05;;;;;;;1.30;1.00;;;11.50;99.90;;;;;;5092687;28;20220;-62
2022/04/07 01:46:33;;;;;;;1.23;1.13;;;11.10;99.90;;;;;;5083033;28;20186;-62
2022/04/07 01:48:59;;;;;;;1.20;1.10;;;11.10;99.90;;;;;;5083063;28;20188;-62
2022/04/07 01:51:25;;;;;;;1.13;1.10;;;11.20;99.90;;;;;;5074969;28;20220;-62
2022/04/07 01:53:51;;;;;;;1.23;1.10;;;11.10;99.90;;;;;;5092883;28;20208;-62
2022/04/07 01:56:18;;;;;;;1.40;1.30;;;11.30;99.90;;;;;;5080069;28;20190;-62
2022/04/07 01:58:45;;;;;;;1.40;1.30;;;11.30;99.90;;;;;;5070902;28;20824;-62
2022/04/07 02:01:11;;;;;;;1.05;1.05;;;11.30;99.90;;;;;;5083849;28;20624;-63
2022/04/07 02:03:37;;;;;;;1.57;0.97;;;11.30;99.90;;;;;;5079268;28;20243;-62
2022/04/07 02:06:17;;;;;;;1.20;1.10;;;11.20;99.90;;;;;;5091989;28;20180;-62
2022/04/07 02:08:43;;;;;;;1.00;0.90;;;11.20;99.90;;;;;;5087913;28;20224;-62
2022/04/07 02:11:10;;;;;;;1.42;1.33;;;11.10;99.90;;;;;;5091604;28;20196;-62
2022/04/07 02:13:38;;;;;;;1.30;1.20;;;11.10;99.90;;;;;;5092414;28;20201;-62
2022/04/07 02:16:05;;;;;;;1.35;1.08;;;11.20;99.90;;;;;;5083035;28;20185;-62
2022/04/07 02:18:31;;;;;;;1.33;1.23;;;10.90;99.90;;;;;;5087106;28;20190;-63
2022/04/07 02:20:56;;;;;;;1.93;1.20;;;11.20;99.90;;;;;;5097111;28;20191;-62
2022/04/07 02:23:22;;;;;;;1.40;1.30;;;11.00;99.90;;;;;;5075109;28;20274;-63
2022/04/07 02:25:48;;;;;;;0.80;0.80;;;11.10;99.90;;;;;;5069449;28;20178;-63
2022/04/07 02:28:13;;;;;;;1.20;1.10;;;11.00;99.90;;;;;;5084378;28;20181;-63
2022/04/07 02:30:39;;;;;;;1.67;1.30;;;11.10;99.90;;;;;;5082506;28;20199;-63
2022/04/07 02:33:04;;;;;;;1.10;1.00;;;10.90;99.90;;;;;;5088220;28;20277;-63
2022/04/07 02:35:30;;;;;;;1.63;1.53;;;11.10;99.90;;;;;;5090012;28;20184;-62
2022/04/07 02:37:59;;;;;;;2.07;1.20;;;10.90;99.90;;;;;;5089426;28;20247;-62
2022/04/07 02:40:25;;;;;;;1.20;1.10;;;11.00;99.90;;;;;;5078776;28;20444;-62
2022/04/07 02:42:51;;;;;;;1.20;1.10;;;10.90;99.90;;;;;;5084937;28;20193;-63
2022/04/07 02:45:17;;;;;;;1.13;0.90;;;11.10;99.90;;;;;;5089862;28;20474;-62
2022/04/07 02:47:42;;;;;;;1.13;1.03;;;11.30;99.90;;;;;;5079686;28;20613;-62
2022/04/07 02:50:08;;;;;;;1.23;1.13;;;11.30;99.90;;;;;;5089788;28;20188;-62
2022/04/07 02:52:34;;;;;;;1.55;1.45;;;11.00;99.90;;;;;;5091446;28;20215;-63
2022/04/07 02:55:00;;;;;;;1.10;1.00;;;11.20;99.90;;;;;;5088733;28;20585;-62
2022/04/07 02:57:30;;;;;;;1.10;1.00;;;11.10;99.90;;;;;;5079226;28;20190;-62
2022/04/07 02:59:57;;;;;;;1.00;1.00;;;11.20;99.90;;;;;;5083352;28;20183;-62
2022/04/07 03:02:22;;;;;;;1.00;0.90;;;11.10;99.90;;;;;;5085413;28;20236;-62
2022/04/07 03:04:48;;;;;;;1.57;1.00;;;11.00;99.90;;;;;;5091479;28;20236;-62
2022/04/07 03:07:13;;;;;;;1.00;0.90;;;10.90;99.90;;;;;;5077103;28;20181;-62
2022/04/07 03:09:40;;;;;;;3.43;0.93;;;10.70;99.90;;;;;;5077121;28;20214;-62
2022/04/07 03:12:06;;;;;;;1.85;0.98;;;11.00;99.90;;;;;;5091234;28;20183;-63
2022/04/07 03:14:31;;;;;;;1.23;0.70;;;10.90;99.90;;;;;;5091159;28;20198;-62
2022/04/07 03:16:58;;;;;;;0.80;0.80;;;11.00;99.90;;;;;;5072682;28;20452;-63
2022/04/07 03:19:24;;;;;;;1.35;0.88;;;11.00;99.90;;;;;;5070662;28;20223;-62
2022/04/07 03:21:50;;;;;;;1.10;1.00;;;10.90;99.90;;;;;;5072980;28;20188;-62
2022/04/07 03:24:15;;;;;;;2.17;0.90;;;10.80;99.90;;;;;;5080993;28;20464;-62
2022/04/07 03:26:41;;;;;;;0.80;0.70;;;10.70;99.90;;;;;;5066698;28;20182;-62
2022/04/07 03:29:06;;;;;;;1.00;1.00;;;10.80;99.90;;;;;;5098086;28;20234;-62
2022/04/07 03:31:32;;;;;;;1.13;0.80;;;10.90;99.90;;;;;;5078255;28;20667;-62
2022/04/07 03:33:58;;;;;;;1.03;0.97;;;10.80;99.90;;;;;;5077367;28;20233;-62
2022/04/07 03:36:23;;;;;;;0.90;0.80;;;10.90;99.90;;;;;;5078490;28;20190;-62
2022/04/07 03:38:51;;;;;;;0.80;0.70;;;10.80;99.90;;;;;;5081882;28;20267;-62
2022/04/07 03:41:17;;;;;;;1.00;0.80;;;10.90;99.90;;;;;;5072482;28;20185;-62
2022/04/07 03:43:42;;;;;;;1.60;1.38;;;11.00;99.90;;;;;;5090635;28;20688;-62
2022/04/07 03:46:08;;;;;;;1.00;0.90;;;11.10;99.90;;;;;;5087939;28;20193;-62
2022/04/07 03:48:34;;;;;;;1.60;1.00;;;11.10;99.90;;;;;;5090777;28;20194;-62
2022/04/07 03:51:00;;;;;;;1.07;0.97;;;10.60;99.90;;;;;;5090662;28;20189;-62
2022/04/07 03:53:25;;;;;;;3.03;2.13;;;10.80;99.90;;;;;;5081746;28;20537;-62
2022/04/07 03:55:51;;;;;;;1.77;1.10;;;10.80;99.90;;;;;;5079588;28;20548;-62
2022/04/07 03:58:17;;;;;;;1.17;1.07;;;10.80;99.90;;;;;;5084726;28;20697;-62
2022/04/07 04:00:42;;;;;;;0.80;0.80;;;10.70;99.90;;;;;;5067380;28;20761;-62
2022/04/07 04:03:08;;;;;;;1.47;1.37;;;10.90;99.90;;;;;;5090823;28;20216;-62
2022/04/07 04:05:33;;;;;;;1.07;0.90;;;10.60;99.90;;;;;;5078046;28;20192;-62
2022/04/07 04:07:59;;;;;;;1.23;0.70;;;10.70;99.90;;;;;;5082561;28;20599;-62
2022/04/07 04:10:25;;;;;;;0.90;0.70;;;10.70;99.90;;;;;;5090113;28;20645;-62
2022/04/07 04:12:51;;;;;;;0.90;0.80;;;10.70;99.90;;;;;;5072428;28;20505;-62
2022/04/07 04:15:18;;;;;;;0.87;0.87;;;10.40;99.90;;;;;;5088044;28;20193;-62
2022/04/07 04:17:44;;;;;;;1.17;1.02;;;10.60;99.90;;;;;;5081814;28;20195;-63
2022/04/07 04:20:10;;;;;;;1.15;0.70;;;10.40;99.90;;;;;;5092934;28;20180;-62
2022/04/07 04:22:36;;;;;;;0.90;0.90;;;10.50;99.90;;;;;;5088370;28;20204;-62
2022/04/07 04:25:02;;;;;;;1.45;1.00;;;10.70;99.90;;;;;;5090821;28;20287;-62
2022/04/07 04:27:28;;;;;;;1.08;0.98;;;10.40;99.90;;;;;;5081773;28;20181;-62
2022/04/07 04:29:53;;;;;;;1.20;1.10;;;10.80;99.90;;;;;;5083831;28;20181;-62
2022/04/07 04:32:19;;;;;;;1.20;1.10;;;10.70;99.90;;;;;;5079709;28;20204;-62
2022/04/07 04:34:44;;;;;;;0.90;0.90;;;10.70;99.90;;;;;;5077010;28;20204;-62
2022/04/07 04:37:10;;;;;;;1.73;1.23;;;10.60;99.90;;;;;;5077790;28;20670;-62
2022/04/07 04:39:35;;;;;;;1.00;0.90;;;10.60;99.90;;;;;;5088019;28;20547;-62
2022/04/07 04:42:01;;;;;;;2.87;1.20;;;10.70;99.90;;;;;;5082522;28;20189;-63
2022/04/07 04:44:27;;;;;;;0.80;0.80;;;10.60;99.90;;;;;;5082919;28;20565;-62
2022/04/07 04:46:52;;;;;;;1.10;1.00;;;10.70;99.90;;;;;;5072247;28;20191;-64
2022/04/07 04:49:18;;;;;;;2.00;0.90;;;10.70;99.90;;;;;;5089370;28;20707;-64
2022/04/07 04:51:43;;;;;;;1.60;1.20;;;11.00;99.90;;;;;;5091706;28;20189;-62
2022/04/07 04:54:11;;;;;;;1.10;0.80;;;10.70;99.90;;;;;;5093210;28;20201;-62
2022/04/07 04:56:36;;;;;;;1.10;1.00;;;10.70;99.90;;;;;;5085110;28;20185;-62
2022/04/07 04:59:02;;;;;;;1.00;0.90;;;11.00;99.90;;;;;;5093471;28;20202;-62
2022/04/07 05:01:27;;;;;;;0.83;0.83;;;11.10;99.90;;;;;;5083849;28;20229;-62
2022/04/07 05:03:53;;;;;;;1.00;0.97;;;11.00;99.90;;;;;;5089971;28;20224;-62
2022/04/07 05:06:18;;;;;;;1.70;0.80;;;10.70;99.90;;;;;;5085214;28;20188;-62
2022/04/07 05:08:44;;;;;;;0.80;0.80;;;10.90;99.90;;;;;;5087587;28;20491;-61
2022/04/07 05:11:10;;;;;;;0.73;0.73;;;10.90;99.90;;;;;;5090743;28;20557;-62
2022/04/07 05:13:35;;;;;;;0.70;0.70;;;10.90;99.90;;;;;;5088164;28;20207;-62
2022/04/07 05:16:01;;;;;;;0.90;0.90;;;11.20;99.90;;;;;;5089173;28;20255;-62
2022/04/07 05:18:28;;;;;;;0.80;0.60;;;11.00;99.90;;;;;;5085702;28;20208;-62
2022/04/07 05:20:53;;;;;;;2.23;1.00;;;10.90;99.90;;;;;;5092637;28;20230;-62
2022/04/07 05:23:19;;;;;;;0.80;0.80;;;11.10;99.90;;;;;;5091609;28;20273;-62
2022/04/07 05:25:45;;;;;;;1.00;0.80;;;10.90;99.90;;;;;;5088108;28;20879;-62
2022/04/07 05:28:11;;;;;;;0.70;0.70;;;10.80;99.90;;;;;;5094267;28;20180;-62
2022/04/07 05:30:36;;;;;;;1.27;0.60;;;10.80;99.90;;;;;;5086537;28;20954;-62
2022/04/07 05:33:02;;;;;;;1.03;0.97;;;10.80;99.90;;;;;;5092655;28;20247;-62
2022/04/07 05:35:28;;;;;;;1.03;0.77;;;11.00;99.90;;;;;;5092659;28;20190;-62
2022/04/07 05:38:04;;;;;;;1.00;0.90;;;11.00;99.90;;;;;;5090292;28;20186;-62
2022/04/07 05:40:30;;;;;;;0.98;0.88;;;11.20;99.90;;;;;;5057056;28;20264;-66
2022/04/07 05:42:56;;;;;;;1.40;0.80;;;11.40;99.90;;;;;;5088056;28;20293;-68
2022/04/07 05:45:22;;;;;;;1.00;0.73;;;11.20;99.90;;;;;;5091411;28;20637;-68
2022/04/07 05:47:48;;;;;;;1.42;0.70;;;11.50;99.90;;;;;;5092535;28;20257;-68
2022/04/07 05:50:14;;;;;;;0.73;0.70;;;11.30;99.90;;;;;;5092666;28;20250;-69
2022/04/07 05:52:40;;;;;;;0.70;0.70;;;11.30;99.90;;;;;;5092077;28;20464;-70
2022/04/07 05:55:06;;;;;;;1.07;0.97;;;11.20;99.90;;;;;;5090123;28;20443;-73
2022/04/07 05:57:32;;;;;;;0.68;0.60;;;11.50;99.90;;;;;;5090501;28;20181;-65
2022/04/07 06:00:12;;;;;;;0.80;0.60;;;11.50;99.90;;;;;;5075527;28;20238;-65
2022/04/07 06:02:39;;;;;;;0.80;0.70;;;11.90;99.90;;;;;;5086236;28;20471;-64
2022/04/07 06:05:09;;;;;;;0.90;0.60;;;12.10;99.90;;;;;;5089437;28;20682;-64
2022/04/07 06:07:35;;;;;;;0.77;0.70;;;12.20;99.90;;;;;;5092047;28;20186;-61
2022/04/07 06:10:02;;;;;;;1.02;0.70;;;12.30;99.90;;;;;;5073087;28;20184;-61
2022/04/07 06:12:28;;;;;;;1.05;0.70;;;12.40;99.90;;;;;;5085867;28;20573;-59
2022/04/07 06:14:53;;;;;;;0.80;0.57;;;12.60;99.90;;;;;;5087857;28;20207;-67
2022/04/07 06:17:19;;;;;;;0.93;0.77;;;12.60;99.90;;;;;;5085188;28;20442;-65
2022/04/07 06:19:44;;;;;;;2.30;0.70;;;12.70;99.90;;;;;;5092824;28;20193;-65
2022/04/07 06:22:11;;;;;;;0.77;0.60;;;12.30;99.30;;;;;;5084851;28;20233;-64
2022/04/07 06:24:37;;;;;;;1.15;0.60;;;12.60;99.20;;;;;;5084718;28;20209;-62
2022/04/07 06:27:03;;;;;;;0.60;0.50;;;12.70;99.40;;;;;;5089484;28;20288;-62
2022/04/07 06:29:29;;;;;;;0.70;0.60;;;12.30;99.00;;;;;;5083577;28;20353;-64
2022/04/07 06:31:54;;;;;;;0.70;0.60;;;12.60;98.90;;;;;;5077537;28;20269;-61
2022/04/07 06:34:23;;;;;;;1.20;0.73;;;12.40;99.10;;;;;;5091080;28;20204;-61
2022/04/07 06:36:48;;;;;;;0.70;0.60;;;12.30;98.80;;;;;;5085248;28;20183;-61
2022/04/07 06:39:14;;;;;;;0.80;0.70;;;12.40;99.60;;;;;;5069377;28;20674;-61
2022/04/07 06:41:40;;;;;;;0.70;0.60;;;12.30;99.50;;;;;;5089244;28;20202;-61
2022/04/07 06:44:06;;;;;;;0.80;0.60;;;12.20;99.50;;;;;;5083374;28;20718;-61
2022/04/07 06:46:32;;;;;;;0.80;0.60;;;12.40;99.90;;;;;;5087483;28;20190;-62
2022/04/07 06:48:59;;;;;;;1.50;0.60;;;12.30;99.50;;;;;;5073000;28;20818;-66
2022/04/07 06:51:25;;;;;;;0.70;0.60;;;12.10;99.00;;;;;;5090124;28;20174;-64
2022/04/07 06:53:50;;;;;;;0.90;0.60;;;12.40;99.30;;;;;;5091551;28;20207;-63
2022/04/07 06:56:16;;;;;;;1.20;0.60;;;12.30;99.10;;;;;;5088644;28;20627;-65
2022/04/07 06:58:42;;;;;;;0.77;0.60;;;12.40;99.20;;;;;;5085343;28;20179;-65
2022/04/07 07:01:08;;;;;;;1.30;0.60;;;12.40;99.40;;;;;;5088129;28;20218;-65
2022/04/07 07:03:34;;;;;;;0.70;0.60;;;12.30;99.30;;;;;;5084053;28;20220;-65
2022/04/07 07:06:00;;;;;;;1.02;0.70;;;12.30;99.20;;;;;;5085793;28;20190;-65
2022/04/07 07:08:26;;;;;;;0.70;0.60;;;12.30;99.10;;;;;;5066193;28;20201;-66
2022/04/07 07:10:53;;;;;;;0.90;0.65;;;12.40;98.90;;;;;;5090041;28;20955;-64
2022/04/07 07:13:20;;;;;;;0.60;0.47;;;12.20;98.60;;;;;;5077751;28;20202;-65
2022/04/07 07:15:47;;;;;;;0.60;0.50;;;12.60;98.80;;;;;;5085367;28;20193;-65
2022/04/07 07:18:13;;;;;;;0.70;0.50;;;12.50;98.70;;;;;;5086642;28;20266;-65
2022/04/07 07:20:38;;;;;;;0.90;0.60;;;12.60;98.60;;;;;;5073879;28;20609;-59
2022/04/07 07:23:05;;;;;;;0.60;0.50;;;12.70;98.30;;;;;;5082781;28;20200;-61
2022/04/07 07:25:31;;;;;;;0.68;0.55;;;12.70;98.00;;;;;;5088847;28;20713;-63
2022/04/07 07:27:58;;;;;;;0.60;0.50;;;13.10;97.50;;;;;;5083880;28;20183;-63
2022/04/07 07:30:25;;;;;;;0.60;0.50;;;12.90;97.00;;;;;;5082856;28;20183;-64
2022/04/07 07:32:51;;;;;;;0.90;0.80;;;13.00;97.10;;;;;;5085673;28;20208;-65
2022/04/07 07:35:18;;;;;;;0.70;0.50;;;13.20;97.30;;;;;;5067793;28;20223;-65
2022/04/07 07:37:52;;;;;;;1.42;0.70;;;13.10;96.50;;;;;;5083690;28;20687;-61
2022/04/07 07:40:20;;;;;;;1.00;0.50;;;13.00;96.20;;;;;;5084830;28;20203;-61
2022/04/07 07:42:47;;;;;;;1.00;0.50;;;13.40;96.70;;;;;;5079529;28;20282;-60
2022/04/07 07:45:14;;;;;;;1.25;0.50;;;13.30;96.40;;;;;;5080034;28;20219;-59
2022/04/07 07:47:39;;;;;;;2.70;0.65;;;13.70;96.50;;;;;;5069831;28;20243;-62
2022/04/07 07:50:05;;;;;;;1.57;0.67;;;13.70;95.90;;;;;;5071366;28;20828;-59
2022/04/07 07:52:31;;;;;;;0.95;0.73;;;14.10;95.60;;;;;;5070368;28;20730;-67
2022/04/07 07:54:57;;;;;;;0.70;0.53;;;14.50;95.00;;;;;;5069748;28;20215;-67
2022/04/07 07:57:22;;;;;;;1.03;0.70;;;14.20;94.60;;;;;;5069878;28;20439;-68
2022/04/07 07:59:50;;;;;;;0.70;0.60;;;14.50;94.90;;;;;;5069643;28;20297;-63
2022/04/07 08:02:16;;;;;;;0.80;0.60;;;14.50;94.60;;;;;;5070201;28;20295;-70
2022/04/07 08:04:42;;;;;;;0.83;0.70;;;14.40;94.80;;;;;;5077230;28;20362;-69
2022/04/07 08:07:07;;;;;;;0.70;0.70;;;13.90;94.60;;;;;;5058839;28;20478;-68
2022/04/07 08:09:33;;;;;;;2.30;0.70;;;14.10;94.80;;;;;;5057151;28;20297;-64
2022/04/07 08:11:59;;;;;;;1.40;0.50;;;14.20;95.10;;;;;;5073655;28;20192;-62
2022/04/07 08:14:24;;;;;;;1.27;0.70;;;14.00;94.70;;;;;;5071318;28;20201;-63
2022/04/07 08:16:50;;;;;;;0.67;0.60;;;14.10;95.00;;;;;;5073643;28;20185;-61
2022/04/07 08:19:15;;;;;;;0.60;0.60;;;13.90;94.90;;;;;;5075957;28;20541;-62
2022/04/07 08:21:41;;;;;;;1.23;0.80;;;14.10;94.80;;;;;;5072386;28;20632;-63
2022/04/07 08:24:07;;;;;;;1.03;0.70;;;14.60;94.60;;;;;;5073064;28;20215;-65
2022/04/07 08:26:32;;;;;;;1.13;0.60;;;14.20;94.20;;;;;;5073684;28;20265;-63
2022/04/07 08:28:58;;;;;;;2.70;0.90;;;14.10;94.60;;;;;;5073012;28;20275;-67
2022/04/07 08:31:25;;;;;;;2.67;0.90;;;14.30;94.50;;;;;;5074620;28;20192;-65
2022/04/07 08:33:51;;;;;;;1.35;0.65;;;14.60;94.40;;;;;;5073434;28;21584;-64
2022/04/07 08:36:16;;;;;;;0.97;0.80;;;14.50;93.80;;;;;;5075691;28;20181;-65
2022/04/07 08:38:42;;;;;;;1.73;0.63;;;14.40;94.10;;;;;;5074127;28;20520;-63
2022/04/07 08:41:11;;;;;;;1.10;0.80;;;14.30;93.80;;;;;;5076620;28;20191;-66
2022/04/07 08:43:39;;;;;;;0.93;0.70;;;14.50;94.00;;;;;;5074805;28;20210;-63
2022/04/07 08:46:09;;;;;;;1.27;0.52;;;14.80;93.80;;;;;;5073751;28;20192;-66
2022/04/07 08:48:43;;;;;;;1.10;0.77;;;14.70;93.60;;;;;;5072628;28;20187;-64
2022/04/07 08:51:11;;;;;;;0.60;0.50;;;14.60;93.70;;;;;;5074018;28;20564;-65
2022/04/07 08:53:39;;;;;;;1.55;1.45;;;14.70;93.70;;;;;;5057800;28;20753;-66
2022/04/07 08:56:07;;;;;;;0.70;0.65;;;14.80;93.40;;;;;;5076429;28;20189;-64
2022/04/07 08:58:33;;;;;;;1.33;0.93;;;15.00;93.20;;;;;;5075166;28;20200;-65
2022/04/07 09:01:02;;;;;;;1.40;0.80;;;15.40;92.80;;;;;;5073718;28;20264;-65
2022/04/07 09:03:28;;;;;;;0.88;0.50;;;15.40;92.20;;;;;;5075209;28;20651;-65
2022/04/07 09:05:59;;;;;;;0.80;0.50;;;14.80;92.10;;;;;;5072567;28;20793;-62
2022/04/07 09:08:39;;;;;;;0.70;0.50;;;14.70;92.50;;;;;;5075183;28;20609;-58
2022/04/07 09:11:10;;;;;;;2.03;0.63;;;14.90;92.80;;;;;;5072443;28;21558;-61
2022/04/07 09:13:39;;;;;;;0.77;0.50;;;14.90;92.90;;;;;;5072615;28;20294;-64
2022/04/07 09:16:07;;;;;;;0.63;0.50;;;14.70;92.60;;;;;;5071634;28;20185;-67
2022/04/07 09:18:35;;;;;;;0.60;0.50;;;14.70;92.40;;;;;;5072956;28;20180;-68
2022/04/07 09:21:00;;;;;;;0.68;0.60;;;14.50;92.40;;;;;;5073293;28;20899;-65
2022/04/07 09:23:30;;;;;;;1.40;0.50;;;14.90;93.10;;;;;;5075444;28;20676;-70
2022/04/07 09:25:57;;;;;;;0.73;0.57;;;14.80;92.30;;;;;;5078557;28;20191;-68
2022/04/07 09:28:29;;;;;;;0.82;0.70;;;14.60;92.40;;;;;;5079710;28;20217;-65
2022/04/07 09:30:59;;;;;;;1.88;0.82;;;14.30;92.60;;;;;;5076280;28;20311;-64
2022/04/07 09:33:27;;;;;;;1.10;0.60;;;14.50;92.90;;;;;;5075744;28;20204;-62
2022/04/07 09:36:05;;;;;;;0.70;0.50;;;14.40;93.00;;;;;;5054149;28;20181;-64
2022/04/07 09:38:31;;;;;;;1.00;0.70;;;14.60;93.10;;;;;;5071214;28;20687;-57
2022/04/07 09:41:11;;;;;;;1.33;0.60;;;14.40;93.20;;;;;;5079326;28;20180;-59
2022/04/07 09:43:50;;;;;;;0.88;0.73;;;14.40;93.50;;;;;;5092313;28;20212;-58
2022/04/07 09:46:19;;;;;;;0.63;0.63;;;14.30;95.00;;;;;;5076576;28;20203;-58
2022/04/07 09:49:07;;;;;;;0.80;0.60;;;14.20;95.10;;;;;;5086407;28;20176;-58
2022/04/07 09:51:51;;;;;;;0.80;0.70;;;14.20;94.90;;;;;;5087882;28;20661;-58
2022/04/07 09:54:18;;;;;;;0.80;0.60;;;14.10;94.80;;;;;;5071638;28;20189;-58
2022/04/07 09:56:47;;;;;;;1.25;0.70;;;14.10;95.20;;;;;;5079488;28;20181;-58
2022/04/07 09:59:18;;;;;;;0.75;0.50;;;14.30;95.20;;;;;;5084253;28;20268;-58
2022/04/07 10:01:43;;;;;;;2.05;0.73;;;15.00;94.20;;;;;;5074911;28;20190;-57
2022/04/07 10:04:10;;;;;;;4.27;0.53;;;15.40;93.20;;;;;;5073498;28;20311;-58
2022/04/07 10:06:38;;;;;;;1.05;0.60;;;15.40;92.80;;;;;;5084909;28;20704;-57
2022/04/07 10:09:09;;;;;;;0.80;0.70;;;15.30;93.40;;;;;;5090188;28;20191;-59
2022/04/07 10:11:34;;;;;;;0.98;0.88;;;15.50;93.00;;;;;;5091941;28;20180;-59
2022/04/07 10:14:01;;;;;;;0.80;0.60;;;15.70;92.50;;;;;;5091428;28;20215;-60
2022/04/07 10:16:30;;;;;;;1.35;0.60;;;15.80;92.20;;;;;;5076116;28;20267;-59
2022/04/07 10:19:07;;;;;;;0.88;0.70;;;15.60;91.70;;;;;;5085008;28;20180;-60
2022/04/07 10:21:52;;;;;;;1.15;0.80;;;15.50;91.60;;;;;;5089601;28;20187;-59
2022/04/07 10:24:42;;;;;;;2.10;0.80;;;15.40;91.50;;;;;;5087416;28;20196;-60
2022/04/07 10:27:10;;;;;;;0.77;0.50;;;15.80;91.60;;;;;;5088901;28;20261;-61
2022/04/07 10:29:38;;;;;;;0.85;0.50;;;15.70;90.90;;;;;;5088905;28;20176;-59
2022/04/07 10:32:12;;;;;;;1.00;0.50;;;15.80;90.90;;;;;;5088921;28;20165;-58
2022/04/07 10:34:58;;;;;;;2.70;0.90;;;16.00;90.40;;;;;;5086735;28;20192;-58
2022/04/07 10:37:41;;;;;;;1.00;0.90;;;15.50;90.80;;;;;;5087251;28;20301;-65
2022/04/07 10:40:33;;;;;;;1.33;0.90;;;15.40;91.10;;;;;;5089416;28;20176;-65
2022/04/07 10:43:13;;;;;;;1.13;0.60;;;15.40;91.20;;;;;;5076936;28;20221;-67
2022/04/07 10:45:41;;;;;;;0.90;0.60;;;15.20;91.50;;;;;;5067522;28;20322;-67
2022/04/07 10:48:29;;;;;;;0.77;0.50;;;15.50;91.60;;;;;;5072485;28;20673;-66
2022/04/07 10:50:57;;;;;;;3.55;0.75;;;15.40;92.10;;;;;;5054266;28;20188;-67
2022/04/07 10:53:33;;;;;;;0.65;0.50;;;15.70;91.70;;;;;;5069612;28;20763;-63
2022/04/07 10:56:38;;;;;;;1.00;0.70;;;16.00;91.20;;;;;;5054377;28;20551;-67
2022/04/07 10:59:32;;;;;;;0.88;0.50;;;16.40;90.60;;;;;;5065697;28;20195;-69
2022/04/07 11:02:07;;;;;;;0.60;0.40;;;16.20;90.70;;;;;;5074254;28;20195;-69
2022/04/07 11:04:41;;;;;;;0.70;0.60;;;16.60;90.90;;;;;;5071354;28;20211;-69
2022/04/07 11:07:15;;;;;;;1.55;0.60;;;16.10;91.00;;;;;;5072962;28;20440;-68
2022/04/07 11:09:58;;;;;;;1.67;0.70;;;15.60;91.20;;;;;;5072316;28;20203;-71
2022/04/07 11:12:28;;;;;;;1.25;0.60;;;15.40;91.40;;;;;;5070799;28;20617;-69
2022/04/07 11:15:18;;;;;;;2.10;0.60;;;15.80;91.70;;;;;;5073996;28;20245;-69
2022/04/07 11:17:44;;;;;;;1.17;0.50;;;15.90;91.30;;;;;;5042586;28;20207;-71
2022/04/07 11:20:25;;;;;;;0.70;0.60;;;16.20;91.00;;;;;;5051892;28;20191;-66
2022/04/07 11:23:05;;;;;;;1.85;0.50;;;16.10;90.60;;;;;;5069803;28;20236;-67
2022/04/07 11:25:39;;;;;;;0.70;0.50;;;15.90;90.90;;;;;;5070424;28;20682;-65
2022/04/07 11:28:07;;;;;;;1.05;0.65;;;15.90;91.00;;;;;;5072707;28;20200;-66
2022/04/07 11:30:40;;;;;;;1.98;0.52;;;16.20;90.70;;;;;;5071520;28;20169;-67
2022/04/07 11:33:18;;;;;;;2.35;0.52;;;16.50;90.00;;;;;;5069745;28;20265;-70
2022/04/07 11:35:44;;;;;;;1.13;0.75;;;16.40;90.10;;;;;;5069669;28;20176;-69
2022/04/07 11:38:09;;;;;;;1.23;0.57;;;16.40;90.00;;;;;;5070629;28;20187;-65
2022/04/07 11:40:36;;;;;;;2.20;0.67;;;16.30;89.30;;;;;;5069919;28;20449;-65
2022/04/07 11:43:02;;;;;;;0.60;0.40;;;16.30;90.10;;;;;;5070249;28;21199;-69
2022/04/07 11:45:32;;;;;;;1.00;0.60;;;16.10;90.30;;;;;;5070148;28;21576;-66
2022/04/07 11:47:57;;;;;;;0.70;0.50;;;16.00;90.40;;;;;;5067720;28;20189;-68
2022/04/07 11:50:23;;;;;;;0.70;0.50;;;16.20;90.70;;;;;;5069398;28;20208;-68
2022/04/07 11:52:50;;;;;;;0.77;0.50;;;16.00;91.00;;;;;;5070316;28;20450;-69
2022/04/07 11:55:27;;;;;;;1.60;0.50;;;16.10;91.10;;;;;;5069840;28;20491;-64
2022/04/07 11:58:00;;;;;;;0.77;0.50;;;16.00;91.30;;;;;;5068711;28;20188;-64
2022/04/07 12:00:30;;;;;;;0.82;0.50;;;15.90;91.50;;;;;;5069480;28;20858;-64
2022/04/07 12:03:05;;;;;;;0.65;0.60;;;15.70;91.90;;;;;;5050963;28;20201;-66
2022/04/07 12:05:31;;;;;;;0.60;0.50;;;15.60;92.10;;;;;;5071233;28;20227;-68
2022/04/07 12:08:04;;;;;;;0.60;0.47;;;15.60;92.10;;;;;;5069698;28;20180;-64
2022/04/07 12:10:30;;;;;;;0.68;0.50;;;15.70;92.30;;;;;;5068992;28;20439;-67
2022/04/07 12:12:55;;;;;;;1.47;0.50;;;15.60;92.00;;;;;;5068067;28;20226;-64
2022/04/07 12:15:21;;;;;;;0.70;0.63;;;15.50;92.20;;;;;;5069008;28;20199;-64
2022/04/07 12:18:03;;;;;;;0.73;0.47;;;15.70;92.30;;;;;;5069083;28;20641;-65
2022/04/07 12:20:29;;;;;;;0.60;0.50;;;15.70;92.50;;;;;;5071017;28;20188;-68
2022/04/07 12:23:11;;;;;;;0.70;0.50;;;15.50;92.40;;;;;;5069384;28;20213;-68
2022/04/07 12:25:38;;;;;;;1.35;0.50;;;15.20;92.60;;;;;;5068212;28;20204;-67
2022/04/07 12:28:18;;;;;;;1.00;0.60;;;15.40;93.00;;;;;;5070355;28;20181;-66
2022/04/07 12:30:47;;;;;;;0.80;0.50;;;15.00;93.30;;;;;;5070501;28;20303;-64
2022/04/07 12:33:39;;;;;;;0.70;0.60;;;14.80;93.60;;;;;;5069814;28;20682;-64
2022/04/07 12:36:16;;;;;;;1.50;0.60;;;14.90;93.90;;;;;;5069419;28;20196;-63
2022/04/07 12:38:57;;;;;;;1.50;0.50;;;14.70;93.90;;;;;;5082997;28;20194;-62
2022/04/07 12:41:34;;;;;;;0.70;0.60;;;14.70;94.50;;;;;;5078330;28;20180;-63
2022/04/07 12:43:59;;;;;;;0.60;0.50;;;14.70;94.00;;;;;;5080840;28;20719;-63
2022/04/07 12:46:50;;;;;;;1.23;0.50;;;14.70;94.00;;;;;;5074105;28;20200;-66
2022/04/07 12:49:37;;;;;;;0.68;0.43;;;14.70;94.00;;;;;;5082403;28;20184;-66
2022/04/07 12:52:03;;;;;;;0.80;0.50;;;14.80;93.90;;;;;;5086233;28;20200;-68
2022/04/07 12:54:29;;;;;;;0.60;0.50;;;14.90;94.20;;;;;;5082993;28;20203;-64